Terminal Aerodrome Forecast
Issued by NWS

Home | Current Version | Previous Version | Text Only | Print | Product List | Glossary On
Versions: 1 2 3 4 5 6 7 8 9 10 11 12 13 14 15 16 17 18 19 20 21 22 23 24 25 26
000
FTUS43 KLMK 202340
TAFHNB
TAF
KHNB 202340Z 2100/2124 23009KT P6SM -RA OVC040
     FM210100 23008KT 6SM -RA OVC025
     FM210300 24006KT 5SM -RA BR OVC012
      TEMPO 2103/2105 4SM -RA BR OVC008
     FM210900 27006KT P6SM VCSH OVC025=

USA.gov is the U.S. government's official web portal to all federal, state and local government web resources and services.